Beloit, KS

2:31 AM CDT on May 01, 2017 (GMT -0500)
Kansas | | Change Station

Elev 1404 ft 39.46 °N, 98.10 °W | Updated 5 seconds ago

Rain
Rain
35.8 °F
Feels Like 33 °F
N
3.5
Wind Variable Wind from WNW
Gusts 8.0 mph

Today
High -- | Low -- °F
--% Chance of Precip.
Yesterday
High -- | Low -- °F
Precip. -- in
Pressure 29.57 in
Visibility 6.0 miles
Clouds Overcast 900 ft
Windchill 33 °F
Dew Point 35 °F
Humidity 96%
Rainfall 0.02 in
Snow Depth Not available.
6:33 AM 8:26 PM
Waxing Crescent, 30% visible
METAR KCNK 010655Z AUTO 32015G24KT 6SM -RA BR OVC009 02/02 A2955 RMK AO2 PK WND 33026/0628 RAB41 SLP011 P0000 T00220017
Pressure 29.57 in
Visibility 6.0 miles
Clouds Overcast 900 ft
Windchill 33 °F
Dew Point 35 °F
Humidity 96%
Rainfall 0.02 in
Snow Depth Not available.
6:33 AM 8:26 PM
Waxing Crescent, 30% visible
METAR KCNK 010655Z AUTO 32015G24KT 6SM -RA BR OVC009 02/02 A2955 RMK AO2 PK WND 33026/0628 RAB41 SLP011 P0000 T00220017

Get Severe Weather Alerts

Thanks for signing up!

Be on the lookout for a verification email in your inbox.

You'll start receiving the daily forecast at 8 AM.

×

10-Day Weather Forecast

Almanac

Astronomy

May. 01, 2017 Rise Set
Actual Time
Civil Twilight
Nautical Twilight
Astronomical Twilight
Moon
Length of Visible Light
Length of Day
Tomorrow will be .
, % of the Moon is Illuminated

Today's Extremes

State Highs State Lows

Community

WunderPhotos

WunderBlog® & News

Nearby

Air Quality

  Air Quality AQ Index Pollutant
Not available.

Snow Depth

Station Depth Elevation

Earthquake Activity

City Distance Mag. Time & Date
Minimum magnitude displayed is 2.5.

Coastal Water Temperatures

Place Temperature

Stations

Nearby Weather Stations

Station Location Temp. Windchill Dew Point Humidity Wind Precip. Elev Updated Type
                   

Watches & Warnings

There are currently no watches in effect.